createdAt,value
2018-08-10T00:00:21.070Z,17.00
2018-08-10T00:02:49.675Z,16.90
2018-08-10T00:05:18.242Z,16.80
2018-08-10T00:07:46.763Z,16.80
2018-08-10T00:10:16.271Z,16.70
2018-08-10T00:12:45.216Z,16.70
2018-08-10T00:15:13.763Z,16.60
2018-08-10T00:17:42.434Z,16.70
2018-08-10T00:20:13.070Z,16.70
2018-08-10T00:22:41.968Z,16.80
2018-08-10T00:25:13.031Z,16.80
2018-08-10T00:27:41.687Z,16.80
2018-08-10T00:30:15.907Z,16.90
2018-08-10T00:32:46.457Z,16.90
2018-08-10T00:35:15.022Z,16.90
2018-08-10T00:37:44.145Z,16.90
2018-08-10T00:40:16.685Z,17.00
2018-08-10T00:42:45.530Z,17.00
2018-08-10T00:45:15.027Z,17.00
2018-08-10T00:47:43.913Z,17.00
2018-08-10T00:50:13.372Z,17.00
2018-08-10T00:52:42.426Z,17.00
2018-08-10T00:55:12.543Z,17.00
2018-08-10T00:57:41.460Z,16.90
2018-08-10T01:00:12.211Z,16.90
2018-08-10T01:02:41.065Z,16.80
2018-08-10T01:05:10.358Z,16.70
2018-08-10T01:07:38.907Z,16.70
2018-08-10T01:10:13.203Z,16.60
2018-08-10T01:12:42.094Z,16.50
2018-08-10T01:15:12.422Z,16.40
2018-08-10T01:17:41.407Z,16.40
2018-08-10T01:20:27.537Z,16.30
2018-08-10T01:23:01.448Z,16.30
2018-08-10T01:25:30.138Z,16.30
2018-08-10T01:27:59.757Z,16.30
2018-08-10T01:30:30.228Z,16.20
2018-08-10T01:32:59.111Z,16.20
2018-08-10T01:35:28.213Z,16.20
2018-08-10T01:37:57.940Z,16.10
2018-08-10T01:40:26.400Z,16.10
2018-08-10T01:42:54.945Z,16.10
2018-08-10T01:45:23.422Z,16.00
2018-08-10T01:47:51.927Z,16.00
2018-08-10T01:50:20.365Z,16.00
2018-08-10T01:52:48.915Z,15.90
2018-08-10T01:55:17.566Z,15.90
2018-08-10T01:57:46.083Z,15.90
2018-08-10T02:00:14.675Z,15.90
2018-08-10T02:02:43.174Z,15.90
2018-08-10T02:05:13.450Z,15.80
2018-08-10T02:07:42.179Z,15.80
2018-08-10T02:10:12.810Z,15.80
2018-08-10T02:12:42.252Z,15.80
2018-08-10T02:15:12.894Z,15.90
2018-08-10T02:17:41.382Z,16.00
2018-08-10T02:20:12.379Z,15.90
2018-08-10T02:22:41.063Z,15.80
2018-08-10T02:25:11.425Z,15.80
2018-08-10T02:27:40.667Z,15.70
2018-08-10T02:30:10.890Z,15.70
2018-08-10T02:32:40.188Z,15.60
2018-08-10T02:35:09.622Z,15.70
2018-08-10T02:37:38.818Z,15.70
2018-08-10T02:40:11.687Z,15.70
2018-08-10T02:42:40.174Z,15.60
2018-08-10T02:45:09.734Z,15.70
2018-08-10T02:47:38.187Z,15.70
2018-08-10T02:50:06.693Z,15.70
2018-08-10T02:52:35.184Z,15.70
2018-08-10T02:55:04.202Z,15.80
2018-08-10T02:57:32.666Z,15.80
2018-08-10T03:00:01.275Z,15.80
2018-08-10T03:02:29.754Z,15.80
2018-08-10T03:04:58.227Z,15.80
2018-08-10T03:07:26.926Z,15.80
2018-08-10T03:09:55.370Z,15.80
2018-08-10T03:12:23.855Z,15.80
2018-08-10T03:14:52.404Z,15.80
2018-08-10T03:17:20.940Z,15.80
2018-08-10T03:19:49.378Z,15.70
2018-08-10T03:22:17.933Z,15.70
2018-08-10T03:24:46.418Z,15.60
2018-08-10T03:27:14.902Z,15.60
2018-08-10T03:29:43.350Z,15.50
2018-08-10T03:32:11.947Z,15.50
2018-08-10T03:34:40.518Z,15.50
2018-08-10T03:37:09.020Z,15.40
2018-08-10T03:39:37.526Z,15.30
2018-08-10T03:42:06.018Z,15.20
2018-08-10T03:44:34.469Z,15.20
2018-08-10T03:47:03.012Z,15.10
2018-08-10T03:49:32.047Z,15.10
2018-08-10T03:52:00.896Z,15.00
2018-08-10T03:54:29.424Z,15.00
2018-08-10T03:56:57.902Z,14.90
2018-08-10T03:59:26.335Z,14.80
2018-08-10T04:01:54.763Z,14.80
2018-08-10T04:04:23.231Z,14.70
2018-08-10T04:06:51.670Z,14.80
2018-08-10T04:09:20.238Z,14.80
2018-08-10T04:11:48.802Z,14.80
2018-08-10T04:14:17.410Z,15.00
2018-08-10T04:16:46.102Z,14.90
2018-08-10T04:19:14.683Z,14.90
2018-08-10T04:21:43.182Z,14.90
2018-08-10T04:24:11.741Z,14.90
2018-08-10T04:26:40.227Z,14.80
2018-08-10T04:29:08.795Z,14.90
2018-08-10T04:31:37.325Z,14.80
2018-08-10T04:34:06.021Z,14.80
2018-08-10T04:36:34.650Z,14.90
2018-08-10T04:39:03.939Z,14.90
2018-08-10T04:41:32.459Z,14.90
2018-08-10T04:44:01.003Z,14.90
2018-08-10T04:46:29.611Z,15.00
2018-08-10T04:48:58.211Z,14.90
2018-08-10T04:51:26.776Z,15.00
2018-08-10T04:53:55.330Z,15.00
2018-08-10T04:56:23.806Z,15.10
2018-08-10T04:58:52.407Z,15.00
2018-08-10T05:01:21.067Z,15.00
2018-08-10T05:03:49.610Z,15.10
2018-08-10T05:06:18.110Z,15.20
2018-08-10T05:08:46.599Z,15.10
2018-08-10T05:11:15.111Z,15.10
2018-08-10T05:13:44.214Z,15.20
2018-08-10T05:16:12.789Z,15.10
2018-08-10T05:18:41.369Z,15.20
2018-08-10T05:21:09.863Z,15.10
2018-08-10T05:23:38.463Z,15.20
2018-08-10T05:26:07.035Z,15.20
2018-08-10T05:28:35.515Z,15.30
2018-08-10T05:31:04.366Z,15.60
2018-08-10T05:33:32.871Z,16.00
2018-08-10T05:36:01.419Z,16.40
2018-08-10T05:38:30.024Z,16.60
2018-08-10T05:40:58.930Z,16.70
2018-08-10T05:43:27.446Z,16.80
2018-08-10T05:45:56.227Z,16.70
2018-08-10T05:48:25.729Z,16.60
2018-08-10T05:50:54.221Z,16.60
2018-08-10T05:53:23.914Z,16.70
2018-08-10T05:55:52.455Z,16.80
2018-08-10T05:58:20.941Z,16.90
2018-08-10T06:00:50.176Z,17.00
2018-08-10T06:03:18.559Z,17.00
2018-08-10T06:05:47.062Z,17.00
2018-08-10T06:08:15.550Z,17.20
2018-08-10T06:10:44.436Z,17.20
2018-08-10T06:13:13.066Z,17.30
2018-08-10T06:15:41.654Z,17.40
2018-08-10T06:18:10.871Z,17.50
2018-08-10T06:20:39.388Z,17.60
2018-08-10T06:23:07.802Z,17.80
2018-08-10T06:25:36.346Z,17.80
2018-08-10T06:28:05.005Z,17.80
2018-08-10T06:30:33.519Z,17.90
2018-08-10T06:33:02.048Z,18.10
2018-08-10T06:35:30.599Z,18.10
2018-08-10T06:37:59.100Z,18.30
2018-08-10T06:40:28.386Z,18.40
2018-08-10T06:42:56.954Z,18.40
2018-08-10T06:45:25.839Z,18.50
2018-08-10T06:47:54.302Z,18.40
2018-08-10T06:50:22.907Z,18.40
2018-08-10T06:52:51.363Z,18.40
2018-08-10T06:55:19.899Z,18.40
2018-08-10T06:57:48.428Z,18.30
2018-08-10T07:00:16.991Z,18.30
2018-08-10T07:02:45.488Z,18.40
2018-08-10T07:05:15.002Z,18.50
2018-08-10T07:07:43.481Z,18.60
2018-08-10T07:10:12.569Z,18.70
2018-08-10T07:12:41.087Z,18.60
2018-08-10T07:15:10.187Z,18.60
2018-08-10T07:17:38.647Z,18.60
2018-08-10T07:20:08.045Z,18.70
2018-08-10T07:22:36.826Z,18.90
2018-08-10T07:25:05.829Z,18.90
2018-08-10T07:27:34.342Z,19.00
2018-08-10T07:30:02.991Z,19.20
2018-08-10T07:32:31.469Z,19.30
2018-08-10T07:34:59.963Z,19.40
2018-08-10T07:37:28.586Z,19.50
2018-08-10T07:39:57.126Z,19.70
2018-08-10T07:42:25.633Z,19.90
2018-08-10T07:44:54.363Z,20.20
2018-08-10T07:47:22.911Z,20.40
2018-08-10T07:49:51.490Z,20.60
2018-08-10T07:52:20.276Z,20.90
2018-08-10T07:54:48.732Z,21.40
2018-08-10T07:57:17.392Z,21.50
2018-08-10T07:59:45.925Z,22.10
2018-08-10T08:02:14.638Z,22.40
2018-08-10T08:04:43.576Z,22.30
2018-08-10T08:07:12.912Z,22.30
2018-08-10T08:09:41.456Z,22.40
2018-08-10T08:12:10.055Z,22.90
2018-08-10T08:14:38.503Z,23.10
2018-08-10T08:17:07.151Z,23.10
2018-08-10T08:19:35.841Z,23.10
2018-08-10T08:22:08.370Z,22.80
2018-08-10T08:24:37.280Z,22.50
2018-08-10T08:27:06.280Z,22.60
2018-08-10T08:29:35.384Z,22.90
2018-08-10T08:32:04.175Z,22.90
2018-08-10T08:34:33.154Z,22.70
2018-08-10T08:37:02.629Z,22.60
2018-08-10T08:40:45.257Z,22.80
2018-08-10T08:43:14.129Z,22.80
2018-08-10T08:45:56.325Z,23.20
2018-08-10T08:48:25.487Z,23.40
2018-08-10T08:50:55.583Z,23.60
2018-08-10T08:53:24.026Z,23.40
2018-08-10T08:56:10.694Z,23.30
2018-08-10T08:58:39.883Z,23.70
2018-08-10T09:01:08.969Z,24.00
2018-08-10T09:03:48.610Z,24.10
2018-08-10T09:06:17.128Z,24.40
2018-08-10T09:08:56.721Z,24.50
2018-08-10T09:11:25.184Z,24.30
2018-08-10T09:14:59.320Z,24.30
2018-08-10T09:17:27.910Z,24.50
2018-08-10T09:19:56.499Z,24.80
2018-08-10T09:22:26.470Z,25.00
2018-08-10T09:24:55.027Z,24.90
2018-08-10T09:27:23.531Z,24.90
2018-08-10T09:29:52.160Z,24.20
2018-08-10T09:32:20.879Z,23.80
2018-08-10T09:34:49.459Z,23.10
2018-08-10T09:37:18.020Z,22.80
2018-08-10T09:39:46.709Z,22.90
2018-08-10T09:42:15.229Z,23.30
2018-08-10T09:44:43.666Z,23.40
2018-08-10T09:47:12.271Z,23.40
2018-08-10T09:49:44.028Z,23.50
2018-08-10T09:52:12.589Z,23.60
2018-08-10T09:55:35.396Z,23.70
2018-08-10T09:58:05.874Z,23.80
2018-08-10T10:00:39.905Z,23.90
2018-08-10T10:03:14.789Z,24.10
2018-08-10T10:05:43.810Z,24.20
2018-08-10T10:08:12.616Z,24.40
2018-08-10T10:10:41.044Z,24.60
2018-08-10T10:13:09.627Z,24.70
2018-08-10T10:15:38.099Z,24.70
2018-08-10T10:18:08.548Z,24.60
2018-08-10T10:20:37.070Z,24.60
2018-08-10T10:23:06.303Z,24.60
2018-08-10T10:25:34.785Z,24.70
2018-08-10T10:28:03.355Z,24.70
2018-08-10T10:30:31.800Z,24.70
2018-08-10T10:33:00.380Z,24.30
2018-08-10T10:35:28.835Z,24.40
2018-08-10T10:37:57.325Z,24.40
2018-08-10T10:40:25.815Z,24.40
2018-08-10T10:42:54.284Z,24.60
2018-08-10T10:45:22.775Z,24.40
2018-08-10T10:47:51.723Z,24.60
2018-08-10T10:50:20.211Z,24.70
2018-08-10T10:52:48.711Z,24.90
2018-08-10T10:55:17.200Z,24.90
2018-08-10T10:57:45.720Z,25.00
2018-08-10T11:00:15.949Z,25.10
2018-08-10T11:02:44.703Z,25.00
2018-08-10T11:05:13.187Z,24.80
2018-08-10T11:07:41.639Z,24.90
2018-08-10T11:10:13.359Z,24.80
2018-08-10T11:12:41.887Z,24.70
2018-08-10T11:15:10.984Z,24.60
2018-08-10T11:17:39.542Z,24.30
2018-08-10T11:20:09.695Z,24.00
2018-08-10T11:22:38.934Z,24.10
2018-08-10T11:25:08.348Z,23.80
2018-08-10T11:27:36.819Z,23.50
2018-08-10T11:30:06.625Z,23.20
2018-08-10T11:32:35.151Z,23.20
2018-08-10T11:35:03.960Z,23.40
2018-08-10T11:37:32.463Z,23.80
2018-08-10T11:40:01.159Z,24.30
2018-08-10T11:42:29.789Z,24.70
2018-08-10T11:44:58.680Z,24.80
2018-08-10T11:47:27.334Z,24.70
2018-08-10T11:49:55.883Z,24.80
2018-08-10T11:52:24.380Z,24.70
2018-08-10T11:54:53.073Z,24.50
2018-08-10T11:57:21.608Z,24.20
2018-08-10T11:59:50.379Z,24.00
2018-08-10T12:02:18.926Z,23.90
2018-08-10T12:04:47.427Z,23.90
2018-08-10T12:07:15.901Z,23.90
2018-08-10T12:09:44.430Z,23.70
2018-08-10T12:12:12.943Z,23.90
2018-08-10T12:14:41.497Z,24.10
2018-08-10T12:17:10.002Z,24.30
2018-08-10T12:19:38.665Z,24.80
2018-08-10T12:22:07.270Z,25.00
2018-08-10T12:24:36.191Z,25.10
2018-08-10T12:27:05.491Z,25.00
2018-08-10T12:29:33.970Z,25.00
2018-08-10T12:32:02.592Z,25.10
2018-08-10T12:34:31.198Z,25.00
2018-08-10T12:36:59.722Z,25.00
2018-08-10T12:39:28.565Z,25.00
2018-08-10T12:41:57.130Z,25.00
2018-08-10T12:44:25.724Z,25.10
2018-08-10T12:46:54.610Z,25.10
2018-08-10T12:49:23.199Z,25.10
2018-08-10T12:51:51.756Z,25.00
2018-08-10T12:54:20.472Z,25.00
2018-08-10T12:56:50.387Z,24.70
2018-08-10T12:59:18.962Z,24.40
2018-08-10T13:01:47.614Z,24.40
2018-08-10T13:04:16.414Z,24.50
2018-08-10T13:06:45.147Z,24.70
2018-08-10T13:09:14.305Z,24.80
2018-08-10T13:11:43.009Z,25.00
2018-08-10T13:14:11.704Z,25.00
2018-08-10T13:16:40.333Z,25.10
2018-08-10T13:19:08.852Z,25.20
2018-08-10T13:21:37.431Z,25.10
2018-08-10T13:24:06.045Z,25.20
2018-08-10T13:26:34.974Z,25.20
2018-08-10T13:29:03.516Z,25.20
2018-08-10T13:31:32.048Z,25.10
2018-08-10T13:34:00.711Z,24.90
2018-08-10T13:36:29.820Z,24.50
2018-08-10T13:38:58.358Z,24.40
2018-08-10T13:41:27.268Z,24.30
2018-08-10T13:43:55.863Z,24.30
2018-08-10T13:46:24.590Z,24.70
2018-08-10T13:48:53.139Z,24.90
2018-08-10T13:51:21.726Z,25.00
2018-08-10T13:53:50.246Z,25.00
2018-08-10T13:56:19.115Z,24.90
2018-08-10T13:58:47.624Z,24.90
2018-08-10T14:01:16.320Z,24.70
2018-08-10T14:03:45.455Z,24.40
2018-08-10T14:06:14.232Z,24.40
2018-08-10T14:08:42.671Z,24.70
2018-08-10T14:11:11.280Z,25.00
2018-08-10T14:13:40.478Z,25.00
2018-08-10T14:16:08.996Z,25.00
2018-08-10T14:18:37.748Z,25.20
2018-08-10T14:21:06.716Z,25.00
2018-08-10T14:23:35.406Z,25.00
2018-08-10T14:26:04.137Z,25.00
2018-08-10T14:28:32.832Z,24.80
2018-08-10T14:31:01.751Z,24.70
2018-08-10T14:33:30.447Z,24.70
2018-08-10T14:35:59.037Z,24.70
2018-08-10T14:38:27.682Z,24.70
2018-08-10T14:40:56.311Z,24.70
2018-08-10T14:43:24.806Z,24.60
2018-08-10T14:45:53.486Z,24.70
2018-08-10T14:48:21.997Z,24.70
2018-08-10T14:50:50.610Z,24.50
2018-08-10T14:53:19.351Z,24.50
2018-08-10T14:55:48.703Z,24.60
2018-08-10T14:58:17.248Z,24.60
2018-08-10T15:00:45.885Z,24.40
2018-08-10T15:03:14.395Z,24.20
2018-08-10T15:05:43.108Z,24.40
2018-08-10T15:08:11.703Z,24.50
2018-08-10T15:10:40.355Z,24.40
2018-08-10T15:13:08.947Z,24.20
2018-08-10T15:15:37.403Z,24.10
2018-08-10T15:18:06.056Z,24.30
2018-08-10T15:20:34.863Z,24.40
2018-08-10T15:23:03.539Z,24.70
2018-08-10T15:25:32.063Z,24.70
2018-08-10T15:28:00.813Z,24.70
2018-08-10T15:30:30.017Z,24.80
2018-08-10T15:32:58.560Z,24.70
2018-08-10T15:35:27.706Z,24.90
2018-08-10T15:37:56.350Z,24.90
2018-08-10T15:40:24.914Z,24.70
2018-08-10T15:42:53.382Z,24.60
2018-08-10T15:45:22.104Z,24.30
2018-08-10T15:47:53.482Z,24.10
2018-08-10T15:50:22.653Z,24.20
2018-08-10T15:52:51.534Z,24.30
2018-08-10T15:55:20.271Z,24.60
2018-08-10T15:57:48.815Z,24.80
2018-08-10T16:00:20.081Z,25.00
2018-08-10T16:02:49.011Z,25.00
2018-08-10T16:05:17.581Z,24.90
2018-08-10T16:07:46.648Z,24.80
2018-08-10T16:10:15.530Z,24.60
2018-08-10T16:12:43.984Z,24.40
2018-08-10T16:15:14.362Z,24.40
2018-08-10T16:17:43.280Z,24.30
2018-08-10T16:20:14.349Z,24.20
2018-08-10T16:22:42.913Z,24.20
2018-08-10T16:25:12.107Z,24.10
2018-08-10T16:27:41.591Z,23.90
2018-08-10T16:30:11.691Z,23.80
2018-08-10T16:32:41.366Z,23.70
2018-08-10T16:35:12.375Z,23.70
2018-08-10T16:37:42.210Z,23.60
2018-08-10T16:40:11.990Z,23.60
2018-08-10T16:42:41.312Z,23.60
2018-08-10T16:45:10.864Z,23.60
2018-08-10T16:47:39.919Z,23.70
2018-08-10T16:50:14.238Z,23.60
2018-08-10T16:52:43.521Z,23.70
2018-08-10T16:55:14.516Z,23.80
2018-08-10T16:57:44.189Z,23.90
2018-08-10T17:00:14.575Z,23.90
2018-08-10T17:02:43.814Z,23.90
2018-08-10T17:05:12.403Z,23.90
2018-08-10T17:07:41.407Z,23.70
2018-08-10T17:10:10.298Z,23.60
2018-08-10T17:12:40.129Z,23.60
2018-08-10T17:15:13.500Z,23.60
2018-08-10T17:17:43.565Z,23.60
2018-08-10T17:20:12.935Z,23.70
2018-08-10T17:22:42.038Z,23.70
2018-08-10T17:25:11.845Z,23.60
2018-08-10T17:27:40.345Z,23.50
2018-08-10T17:30:11.324Z,23.50
2018-08-10T17:32:40.230Z,23.40
2018-08-10T17:35:10.950Z,23.30
2018-08-10T17:37:40.118Z,23.30
2018-08-10T17:40:09.555Z,23.20
2018-08-10T17:42:38.671Z,23.20
2018-08-10T17:45:11.410Z,23.20
2018-08-10T17:47:40.448Z,23.30
2018-08-10T17:50:13.291Z,23.20
2018-08-10T17:52:44.264Z,23.20
2018-08-10T17:55:13.645Z,23.10
2018-08-10T17:57:42.155Z,23.10
2018-08-10T18:00:13.688Z,23.00
2018-08-10T18:02:42.176Z,23.00
2018-08-10T18:05:12.724Z,22.90
2018-08-10T18:07:41.534Z,22.80
2018-08-10T18:10:11.067Z,22.60
2018-08-10T18:12:40.422Z,22.50
2018-08-10T18:15:11.236Z,22.40
2018-08-10T18:17:40.562Z,22.40
2018-08-10T18:20:11.916Z,22.30
2018-08-10T18:22:40.562Z,22.20
2018-08-10T18:25:10.748Z,22.20
2018-08-10T18:27:39.650Z,22.20
2018-08-10T18:30:11.426Z,22.10
2018-08-10T18:32:40.370Z,22.00
2018-08-10T18:35:09.607Z,22.00
2018-08-10T18:37:39.083Z,21.90
2018-08-10T18:40:09.118Z,21.90
2018-08-10T18:42:38.132Z,21.80
2018-08-10T18:45:07.937Z,21.70
2018-08-10T18:47:36.860Z,21.70
2018-08-10T18:50:05.962Z,21.60
2018-08-10T18:52:35.789Z,21.50
2018-08-10T18:55:04.706Z,21.40
2018-08-10T18:57:34.142Z,21.40
2018-08-10T19:00:02.843Z,21.30
2018-08-10T19:02:31.812Z,21.20
2018-08-10T19:05:00.925Z,21.20
2018-08-10T19:07:29.487Z,21.10
2018-08-10T19:09:58.072Z,21.10
2018-08-10T19:12:26.552Z,21.00
2018-08-10T19:14:55.323Z,20.90
2018-08-10T19:17:23.906Z,20.90
2018-08-10T19:19:52.400Z,20.80
2018-08-10T19:22:20.994Z,20.70
2018-08-10T19:24:49.461Z,20.70
2018-08-10T19:27:18.683Z,20.60
2018-08-10T19:29:47.839Z,20.60
2018-08-10T19:32:16.408Z,20.50
2018-08-10T19:34:44.920Z,20.40
2018-08-10T19:37:13.531Z,20.40
2018-08-10T19:39:42.121Z,20.40
2018-08-10T19:42:10.705Z,20.40
2018-08-10T19:44:39.527Z,20.20
2018-08-10T19:47:08.344Z,20.20
2018-08-10T19:49:36.932Z,20.10
2018-08-10T19:52:05.624Z,20.20
2018-08-10T19:54:34.608Z,20.10
2018-08-10T19:57:03.237Z,20.00
2018-08-10T19:59:31.759Z,19.90
2018-08-10T20:02:00.348Z,19.80
2018-08-10T20:04:28.963Z,19.80
2018-08-10T20:06:57.619Z,19.70
2018-08-10T20:09:26.157Z,19.70
2018-08-10T20:11:54.637Z,19.60
2018-08-10T20:14:23.130Z,19.60
2018-08-10T20:16:51.850Z,19.60
2018-08-10T20:19:20.387Z,19.60
2018-08-10T20:21:48.982Z,19.40
2018-08-10T20:24:17.542Z,19.40
2018-08-10T20:26:46.019Z,19.40
2018-08-10T20:29:14.530Z,19.30
2018-08-10T20:31:43.095Z,19.30
2018-08-10T20:34:11.726Z,19.20
2018-08-10T20:36:40.223Z,19.20
2018-08-10T20:39:10.344Z,19.10
2018-08-10T20:41:38.955Z,19.10
2018-08-10T20:44:07.664Z,19.00
2018-08-10T20:46:37.102Z,19.00
2018-08-10T20:49:05.844Z,19.00
2018-08-10T20:51:34.319Z,19.00
2018-08-10T20:54:02.895Z,19.00
2018-08-10T20:56:31.456Z,19.00
2018-08-10T20:59:00.563Z,19.00
2018-08-10T21:01:29.129Z,19.00
2018-08-10T21:03:57.818Z,19.00
2018-08-10T21:06:26.260Z,19.00
2018-08-10T21:08:54.749Z,19.00
2018-08-10T21:11:23.312Z,18.90
2018-08-10T21:13:51.934Z,18.90
2018-08-10T21:16:20.419Z,18.80
2018-08-10T21:18:48.968Z,18.80
2018-08-10T21:21:17.534Z,18.80
2018-08-10T21:23:46.059Z,18.70
2018-08-10T21:26:14.604Z,18.70
2018-08-10T21:28:43.191Z,18.70
2018-08-10T21:31:11.819Z,18.70
2018-08-10T21:33:40.372Z,18.60
2018-08-10T21:36:09.121Z,18.60
2018-08-10T21:38:37.661Z,18.60
2018-08-10T21:41:06.192Z,18.50
2018-08-10T21:43:34.699Z,18.50
2018-08-10T21:46:03.177Z,18.50
2018-08-10T21:48:31.899Z,18.50
2018-08-10T21:51:00.470Z,18.40
2018-08-10T21:53:29.132Z,18.50
2018-08-10T21:55:57.644Z,18.50
2018-08-10T21:58:26.624Z,18.50
2018-08-10T22:00:58.115Z,18.50
2018-08-10T22:03:26.627Z,18.50
2018-08-10T22:05:55.292Z,18.50
2018-08-10T22:08:24.742Z,18.40
2018-08-10T22:10:53.348Z,18.40
2018-08-10T22:13:27.106Z,18.40
2018-08-10T22:16:01.291Z,18.40
2018-08-10T22:18:35.284Z,18.30
2018-08-10T22:21:04.526Z,18.30
2018-08-10T22:23:33.115Z,18.20
2018-08-10T22:26:01.675Z,18.10
2018-08-10T22:28:30.372Z,18.10
2018-08-10T22:30:59.241Z,18.10
2018-08-10T22:33:27.857Z,18.10
2018-08-10T22:35:56.392Z,18.10
2018-08-10T22:38:24.876Z,18.10
2018-08-10T22:40:53.469Z,18.00
2018-08-10T22:43:21.944Z,17.90
2018-08-10T22:45:50.484Z,17.90
2018-08-10T22:48:18.963Z,17.90
2018-08-10T22:50:47.455Z,17.90
2018-08-10T22:53:15.934Z,17.80
2018-08-10T22:55:44.587Z,17.80
2018-08-10T22:58:13.146Z,17.80
2018-08-10T23:00:41.739Z,17.80
2018-08-10T23:03:10.444Z,17.70
2018-08-10T23:05:39.011Z,17.70
2018-08-10T23:08:07.629Z,17.70
2018-08-10T23:10:36.104Z,17.70
2018-08-10T23:13:04.746Z,17.70
2018-08-10T23:15:33.241Z,17.70
2018-08-10T23:18:01.828Z,17.60
2018-08-10T23:20:30.527Z,17.60
2018-08-10T23:22:59.050Z,17.70
2018-08-10T23:25:27.619Z,17.70
2018-08-10T23:28:02.102Z,17.70
2018-08-10T23:30:30.724Z,17.70
2018-08-10T23:32:59.353Z,17.70
2018-08-10T23:35:27.857Z,17.70
2018-08-10T23:37:56.531Z,17.70
2018-08-10T23:40:25.150Z,17.80
2018-08-10T23:42:53.691Z,17.80
2018-08-10T23:45:22.316Z,17.70
2018-08-10T23:47:50.966Z,17.70
2018-08-10T23:50:19.503Z,17.70
2018-08-10T23:52:48.200Z,17.70
2018-08-10T23:55:18.287Z,17.70
2018-08-10T23:57:47.047Z,17.80
